sensor_id;sensor_type;location;lat;lon;timestamp;pressure;altitude;pressure_sealevel;temperature;humidity
44697;BME280;57264;47.480;19.354;2023-12-29T00:00:28;99443.06;;;2.50;93.07
44697;BME280;57264;47.480;19.354;2023-12-29T00:02:54;99436.25;;;2.55;93.12
44697;BME280;57264;47.480;19.354;2023-12-29T00:05:19;99434.47;;;2.41;92.93
44697;BME280;57264;47.480;19.354;2023-12-29T00:07:45;99430.09;;;2.07;92.92
44697;BME280;57264;47.480;19.354;2023-12-29T00:10:10;99436.81;;;1.88;92.63
44697;BME280;57264;47.480;19.354;2023-12-29T00:12:36;99429.09;;;1.79;92.75
44697;BME280;57264;47.480;19.354;2023-12-29T00:15:02;99428.41;;;2.16;92.62
44697;BME280;57264;47.480;19.354;2023-12-29T00:17:27;99423.31;;;2.18;92.74
44697;BME280;57264;47.480;19.354;2023-12-29T00:19:53;99428.47;;;2.30;92.90
44697;BME280;57264;47.480;19.354;2023-12-29T00:22:19;99424.88;;;1.87;92.27
44697;BME280;57264;47.480;19.354;2023-12-29T00:24:46;99431.72;;;1.88;92.24
44697;BME280;57264;47.480;19.354;2023-12-29T00:27:12;99433.44;;;1.96;92.58
44697;BME280;57264;47.480;19.354;2023-12-29T00:29:37;99434.38;;;2.06;92.52
44697;BME280;57264;47.480;19.354;2023-12-29T00:32:03;99432.66;;;2.08;92.79
44697;BME280;57264;47.480;19.354;2023-12-29T00:34:29;99433.59;;;2.30;92.88
44697;BME280;57264;47.480;19.354;2023-12-29T00:36:55;99427.56;;;2.16;92.68
44697;BME280;57264;47.480;19.354;2023-12-29T00:39:21;99419.88;;;2.20;92.43
44697;BME280;57264;47.480;19.354;2023-12-29T00:41:54;99417.38;;;2.36;92.67
44697;BME280;57264;47.480;19.354;2023-12-29T00:44:21;99412.31;;;2.50;92.24
44697;BME280;57264;47.480;19.354;2023-12-29T00:46:46;99405.47;;;2.50;92.58
44697;BME280;57264;47.480;19.354;2023-12-29T00:49:12;99413.19;;;2.62;92.15
44697;BME280;57264;47.480;19.354;2023-12-29T00:51:40;99408.88;;;2.57;92.35
44697;BME280;57264;47.480;19.354;2023-12-29T00:54:08;99418.31;;;2.58;92.35
44697;BME280;57264;47.480;19.354;2023-12-29T00:56:34;99420.84;;;2.56;92.27
44697;BME280;57264;47.480;19.354;2023-12-29T00:59:00;99408.94;;;2.74;92.09
44697;BME280;57264;47.480;19.354;2023-12-29T01:04:19;99411.44;;;2.57;92.41
44697;BME280;57264;47.480;19.354;2023-12-29T01:06:45;99415.63;;;2.26;92.24
44697;BME280;57264;47.480;19.354;2023-12-29T01:09:11;99419.81;;;2.05;92.21
44697;BME280;57264;47.480;19.354;2023-12-29T01:11:37;99412.91;;;1.89;92.13
44697;BME280;57264;47.480;19.354;2023-12-29T01:14:02;99413.72;;;1.77;92.45
44697;BME280;57264;47.480;19.354;2023-12-29T01:16:28;99405.19;;;1.77;92.73
44697;BME280;57264;47.480;19.354;2023-12-29T01:18:53;99401.75;;;1.76;92.59
44697;BME280;57264;47.480;19.354;2023-12-29T01:21:19;99398.31;;;1.74;92.92
44697;BME280;57264;47.480;19.354;2023-12-29T01:23:44;99395.78;;;1.72;92.98
44697;BME280;57264;47.480;19.354;2023-12-29T01:26:10;99400.91;;;1.71;92.93
44697;BME280;57264;47.480;19.354;2023-12-29T01:28:35;99399.13;;;1.64;93.37
44697;BME280;57264;47.480;19.354;2023-12-29T01:31:01;99407.63;;;1.58;93.05
44697;BME280;57264;47.480;19.354;2023-12-29T01:33:26;99405.00;;;1.44;92.83
44697;BME280;57264;47.480;19.354;2023-12-29T01:35:52;99400.66;;;1.33;92.96
44697;BME280;57264;47.480;19.354;2023-12-29T01:38:18;99400.59;;;1.23;93.35
44697;BME280;57264;47.480;19.354;2023-12-29T01:40:45;99402.22;;;1.14;93.35
44697;BME280;57264;47.480;19.354;2023-12-29T01:43:11;99403.06;;;1.11;93.20
44697;BME280;57264;47.480;19.354;2023-12-29T01:45:36;99402.22;;;1.12;93.17
44697;BME280;57264;47.480;19.354;2023-12-29T01:48:02;99399.69;;;1.18;93.23
44697;BME280;57264;47.480;19.354;2023-12-29T01:50:29;99388.63;;;1.19;93.22
44697;BME280;57264;47.480;19.354;2023-12-29T01:52:55;99389.50;;;1.25;93.41
44697;BME280;57264;47.480;19.354;2023-12-29T01:55:24;99373.31;;;1.24;93.15
44697;BME280;57264;47.480;19.354;2023-12-29T01:57:52;99370.72;;;1.22;93.33
44697;BME280;57264;47.480;19.354;2023-12-29T02:00:18;99370.75;;;1.26;93.47
44697;BME280;57264;47.480;19.354;2023-12-29T02:02:46;99367.38;;;1.34;93.38
44697;BME280;57264;47.480;19.354;2023-12-29T02:05:15;99371.72;;;1.44;93.81
44697;BME280;57264;47.480;19.354;2023-12-29T02:07:42;99366.72;;;1.64;93.79
44697;BME280;57264;47.480;19.354;2023-12-29T02:10:08;99366.75;;;1.78;93.90
44697;BME280;57264;47.480;19.354;2023-12-29T02:12:35;99358.31;;;1.97;93.63
44697;BME280;57264;47.480;19.354;2023-12-29T02:15:04;99366.88;;;2.06;93.88
44697;BME280;57264;47.480;19.354;2023-12-29T02:17:51;99373.75;;;2.16;93.69
44697;BME280;57264;47.480;19.354;2023-12-29T02:20:18;99379.72;;;2.13;93.66
44697;BME280;57264;47.480;19.354;2023-12-29T02:22:44;99382.25;;;2.09;93.60
44697;BME280;57264;47.480;19.354;2023-12-29T02:25:10;99386.53;;;2.04;94.04
44697;BME280;57264;47.480;19.354;2023-12-29T02:32:54;99372.78;;;1.83;93.79
44697;BME280;57264;47.480;19.354;2023-12-29T02:35:24;99369.34;;;1.80;93.90
44697;BME280;57264;47.480;19.354;2023-12-29T02:37:51;99366.78;;;1.86;94.23
44697;BME280;57264;47.480;19.354;2023-12-29T02:40:17;99365.97;;;1.90;94.12
44697;BME280;57264;47.480;19.354;2023-12-29T02:42:46;99363.41;;;1.88;94.27
44697;BME280;57264;47.480;19.354;2023-12-29T02:45:13;99365.13;;;1.94;94.14
44697;BME280;57264;47.480;19.354;2023-12-29T02:47:39;99360.00;;;1.91;94.10
44697;BME280;57264;47.480;19.354;2023-12-29T02:50:05;99353.16;;;1.93;94.36
44697;BME280;57264;47.480;19.354;2023-12-29T02:52:30;99354.88;;;1.94;94.10
44697;BME280;57264;47.480;19.354;2023-12-29T02:54:56;99348.06;;;1.91;94.14
44697;BME280;57264;47.480;19.354;2023-12-29T02:57:21;99338.63;;;1.83;94.10
44697;BME280;57264;47.480;19.354;2023-12-29T02:59:47;99337.78;;;1.84;93.60
44697;BME280;57264;47.480;19.354;2023-12-29T03:02:12;99341.19;;;1.80;93.72
44697;BME280;57264;47.480;19.354;2023-12-29T03:04:38;99345.44;;;1.81;94.20
44697;BME280;57264;47.480;19.354;2023-12-29T03:07:03;99341.16;;;1.81;94.18
44697;BME280;57264;47.480;19.354;2023-12-29T03:09:29;99347.13;;;1.77;94.07
44697;BME280;57264;47.480;19.354;2023-12-29T03:11:54;99349.72;;;1.79;94.12
44697;BME280;57264;47.480;19.354;2023-12-29T03:14:20;99339.50;;;1.88;94.19
44697;BME280;57264;47.480;19.354;2023-12-29T03:16:45;99338.66;;;1.87;94.28
44697;BME280;57264;47.480;19.354;2023-12-29T03:19:11;99342.06;;;1.88;93.93
44697;BME280;57264;47.480;19.354;2023-12-29T03:21:36;99333.50;;;1.89;94.06
44697;BME280;57264;47.480;19.354;2023-12-29T03:24:02;99338.63;;;1.89;93.94
44697;BME280;57264;47.480;19.354;2023-12-29T03:26:27;99331.81;;;1.88;94.34
44697;BME280;57264;47.480;19.354;2023-12-29T03:28:54;99329.25;;;1.88;94.10
44697;BME280;57264;47.480;19.354;2023-12-29T03:31:20;99328.34;;;1.77;94.28
44697;BME280;57264;47.480;19.354;2023-12-29T03:33:46;99335.19;;;1.81;94.32
44697;BME280;57264;47.480;19.354;2023-12-29T03:36:12;99339.47;;;1.80;94.07
44697;BME280;57264;47.480;19.354;2023-12-29T03:38:37;99348.84;;;1.77;94.07
44697;BME280;57264;47.480;19.354;2023-12-29T03:41:03;99336.88;;;1.76;93.86
44697;BME280;57264;47.480;19.354;2023-12-29T03:43:29;99338.63;;;1.80;94.43
44697;BME280;57264;47.480;19.354;2023-12-29T03:45:54;99340.34;;;1.84;94.18
44697;BME280;57264;47.480;19.354;2023-12-29T03:48:20;99345.47;;;1.87;94.02
44697;BME280;57264;47.480;19.354;2023-12-29T03:50:45;99342.94;;;1.96;94.13
44697;BME280;57264;47.480;19.354;2023-12-29T03:53:11;99345.50;;;1.97;94.32
44697;BME280;57264;47.480;19.354;2023-12-29T03:55:36;99352.34;;;2.02;94.06
44697;BME280;57264;47.480;19.354;2023-12-29T03:58:03;99342.09;;;1.97;94.11
44697;BME280;57264;47.480;19.354;2023-12-29T04:00:28;99354.06;;;2.00;94.13
44697;BME280;57264;47.480;19.354;2023-12-29T04:02:54;99352.31;;;1.94;94.08
44697;BME280;57264;47.480;19.354;2023-12-29T04:05:20;99354.88;;;1.92;94.47
44697;BME280;57264;47.480;19.354;2023-12-29T04:07:45;99351.47;;;1.90;94.29
44697;BME280;57264;47.480;19.354;2023-12-29T04:10:10;99354.03;;;1.92;94.33
44697;BME280;57264;47.480;19.354;2023-12-29T04:12:36;99362.56;;;1.88;94.35
44697;BME280;57264;47.480;19.354;2023-12-29T04:15:03;99359.13;;;1.83;94.20
44697;BME280;57264;47.480;19.354;2023-12-29T04:17:29;99359.09;;;1.80;94.14
44697;BME280;57264;47.480;19.354;2023-12-29T04:19:55;99366.75;;;1.72;94.19
44697;BME280;57264;47.480;19.354;2023-12-29T04:22:22;99366.75;;;1.70;94.20
44697;BME280;57264;47.480;19.354;2023-12-29T04:24:48;99364.19;;;1.70;94.12
44697;BME280;57264;47.480;19.354;2023-12-29T04:27:17;99355.59;;;1.62;94.01
44697;BME280;57264;47.480;19.354;2023-12-29T04:29:43;99358.13;;;1.55;94.14
44697;BME280;57264;47.480;19.354;2023-12-29T04:32:09;99357.25;;;1.48;94.29
44697;BME280;57264;47.480;19.354;2023-12-29T04:34:35;99359.81;;;1.51;94.21
44697;BME280;57264;47.480;19.354;2023-12-29T04:37:00;99369.16;;;1.46;93.98
44697;BME280;57264;47.480;19.354;2023-12-29T04:39:26;99356.34;;;1.41;94.11
44697;BME280;57264;47.480;19.354;2023-12-29T04:41:51;99350.38;;;1.41;93.95
44697;BME280;57264;47.480;19.354;2023-12-29T04:44:20;99349.50;;;1.36;94.21
44697;BME280;57264;47.480;19.354;2023-12-29T04:46:45;99352.03;;;1.33;94.31
44697;BME280;57264;47.480;19.354;2023-12-29T04:49:11;99362.25;;;1.33;93.85
44697;BME280;57264;47.480;19.354;2023-12-29T04:51:36;99357.97;;;1.30;93.73
44697;BME280;57264;47.480;19.354;2023-12-29T04:54:02;99353.72;;;1.32;94.24
44697;BME280;57264;47.480;19.354;2023-12-29T04:56:27;99346.94;;;1.42;93.94
44697;BME280;57264;47.480;19.354;2023-12-29T04:58:53;99346.97;;;1.39;94.24
44697;BME280;57264;47.480;19.354;2023-12-29T05:01:19;99351.19;;;1.37;94.13
44697;BME280;57264;47.480;19.354;2023-12-29T05:03:44;99352.88;;;1.32;94.31
44697;BME280;57264;47.480;19.354;2023-12-29T05:06:10;99355.38;;;1.26;94.30
44697;BME280;57264;47.480;19.354;2023-12-29T05:08:35;99352.78;;;1.18;94.53
44697;BME280;57264;47.480;19.354;2023-12-29T05:11:01;99349.34;;;1.13;94.10
44697;BME280;57264;47.480;19.354;2023-12-29T05:13:26;99345.06;;;1.07;94.00
44697;BME280;57264;47.480;19.354;2023-12-29T05:15:52;99340.78;;;1.08;93.90
44697;BME280;57264;47.480;19.354;2023-12-29T05:18:17;99338.22;;;1.03;94.19
44697;BME280;57264;47.480;19.354;2023-12-29T05:20:43;99339.88;;;1.03;94.26
44697;BME280;57264;47.480;19.354;2023-12-29T05:23:08;99349.22;;;0.96;94.05
44697;BME280;57264;47.480;19.354;2023-12-29T05:25:34;99359.41;;;0.90;94.26
44697;BME280;57264;47.480;19.354;2023-12-29T05:27:59;99355.13;;;0.90;93.80
44697;BME280;57264;47.480;19.354;2023-12-29T05:30:25;99350.09;;;0.98;93.91
44697;BME280;57264;47.480;19.354;2023-12-29T05:32:53;99350.94;;;0.95;93.98
44697;BME280;57264;47.480;19.354;2023-12-29T05:35:18;99343.19;;;0.91;94.38
44697;BME280;57264;47.480;19.354;2023-12-29T05:37:44;99352.56;;;0.89;94.31
44697;BME280;57264;47.480;19.354;2023-12-29T05:40:10;99364.47;;;0.85;94.18
44697;BME280;57264;47.480;19.354;2023-12-29T05:42:36;99353.41;;;0.85;93.95
44697;BME280;57264;47.480;19.354;2023-12-29T05:45:01;99369.53;;;0.79;94.32
44697;BME280;57264;47.480;19.354;2023-12-29T05:47:27;99366.06;;;0.69;94.12
44697;BME280;57264;47.480;19.354;2023-12-29T05:49:53;99360.09;;;0.69;94.28
44697;BME280;57264;47.480;19.354;2023-12-29T05:52:18;99376.38;;;0.82;94.48
44697;BME280;57264;47.480;19.354;2023-12-29T05:54:44;99379.03;;;0.94;94.17
44697;BME280;57264;47.480;19.354;2023-12-29T05:57:09;99395.03;;;0.70;94.25
44697;BME280;57264;47.480;19.354;2023-12-29T05:59:35;99390.56;;;0.51;94.27
44697;BME280;57264;47.480;19.354;2023-12-29T06:02:01;99385.38;;;0.40;94.04
44697;BME280;57264;47.480;19.354;2023-12-29T06:04:26;99377.22;;;0.81;94.28
44697;BME280;57264;47.480;19.354;2023-12-29T06:06:52;99379.00;;;0.88;94.50
44697;BME280;57264;47.480;19.354;2023-12-29T06:09:17;99381.63;;;0.95;94.47
44697;BME280;57264;47.480;19.354;2023-12-29T06:11:43;99380.88;;;1.12;94.46
44697;BME280;57264;47.480;19.354;2023-12-29T06:14:08;99378.38;;;1.21;94.39
44697;BME280;57264;47.480;19.354;2023-12-29T06:16:35;99376.75;;;1.32;94.32
44697;BME280;57264;47.480;19.354;2023-12-29T06:19:01;99374.13;;;1.21;94.33
44697;BME280;57264;47.480;19.354;2023-12-29T06:21:26;99373.13;;;1.01;94.33
44697;BME280;57264;47.480;19.354;2023-12-29T06:23:52;99367.00;;;0.81;94.10
44697;BME280;57264;47.480;19.354;2023-12-29T06:26:18;99364.34;;;0.68;94.01
44697;BME280;57264;47.480;19.354;2023-12-29T06:28:45;99371.09;;;0.63;94.04
44697;BME280;57264;47.480;19.354;2023-12-29T06:31:11;99370.16;;;0.54;94.41
44697;BME280;57264;47.480;19.354;2023-12-29T06:33:40;99379.41;;;0.42;94.54
44697;BME280;57264;47.480;19.354;2023-12-29T06:36:07;99386.22;;;0.42;94.26
44697;BME280;57264;47.480;19.354;2023-12-29T06:38:32;99377.69;;;0.37;94.02
44697;BME280;57264;47.480;19.354;2023-12-29T06:41:01;99382.78;;;0.37;94.21
44697;BME280;57264;47.480;19.354;2023-12-29T06:43:27;99375.97;;;0.37;94.04
44697;BME280;57264;47.480;19.354;2023-12-29T06:45:52;99373.50;;;0.45;94.32
44697;BME280;57264;47.480;19.354;2023-12-29T06:48:18;99365.03;;;0.51;94.34
44697;BME280;57264;47.480;19.354;2023-12-29T06:50:43;99354.91;;;0.61;94.29
44697;BME280;57264;47.480;19.354;2023-12-29T06:53:09;99355.81;;;0.71;94.26
44697;BME280;57264;47.480;19.354;2023-12-29T06:55:34;99357.63;;;0.80;94.31
44697;BME280;57264;47.480;19.354;2023-12-29T06:58:00;99353.50;;;0.95;94.51
44697;BME280;57264;47.480;19.354;2023-12-29T07:00:25;99369.72;;;1.02;94.22
44697;BME280;57264;47.480;19.354;2023-12-29T07:02:51;99372.34;;;1.08;94.54
44697;BME280;57264;47.480;19.354;2023-12-29T07:05:16;99392.88;;;1.16;94.52
44697;BME280;57264;47.480;19.354;2023-12-29T07:07:42;99384.28;;;1.08;94.26
44697;BME280;57264;47.480;19.354;2023-12-29T07:10:08;99388.47;;;1.03;94.59
44697;BME280;57264;47.480;19.354;2023-12-29T07:12:33;99392.78;;;1.05;94.35
44697;BME280;57264;47.480;19.354;2023-12-29T07:14:59;99398.72;;;1.06;94.51
44697;BME280;57264;47.480;19.354;2023-12-29T07:17:25;99402.22;;;1.14;94.07
44697;BME280;57264;47.480;19.354;2023-12-29T07:19:50;99399.06;;;1.53;94.32
44697;BME280;57264;47.480;19.354;2023-12-29T07:22:16;99398.31;;;1.72;94.11
44697;BME280;57264;47.480;19.354;2023-12-29T07:24:41;99396.69;;;1.88;94.09
44697;BME280;57264;47.480;19.354;2023-12-29T07:27:07;99392.47;;;2.00;94.31
44697;BME280;57264;47.480;19.354;2023-12-29T07:29:33;99394.16;;;1.96;93.97
44697;BME280;57264;47.480;19.354;2023-12-29T07:31:59;99386.50;;;2.05;93.89
44697;BME280;57264;47.480;19.354;2023-12-29T07:34:24;99383.97;;;2.04;93.75
44697;BME280;57264;47.480;19.354;2023-12-29T07:36:50;99387.41;;;2.10;93.61
44697;BME280;57264;47.480;19.354;2023-12-29T07:39:17;99383.97;;;2.07;93.75
44697;BME280;57264;47.480;19.354;2023-12-29T07:41:43;99380.56;;;2.11;93.65
44697;BME280;57264;47.480;19.354;2023-12-29T07:44:12;99375.50;;;2.26;94.09
44697;BME280;57264;47.480;19.354;2023-12-29T07:46:40;99384.88;;;2.22;94.21
44697;BME280;57264;47.480;19.354;2023-12-29T07:49:05;99377.19;;;2.24;93.90
44697;BME280;57264;47.480;19.354;2023-12-29T07:51:31;99390.03;;;2.27;93.89
44697;BME280;57264;47.480;19.354;2023-12-29T07:53:58;99389.19;;;2.43;93.96
44697;BME280;57264;47.480;19.354;2023-12-29T07:56:24;99390.91;;;2.44;93.27
44697;BME280;57264;47.480;19.354;2023-12-29T07:58:50;99387.50;;;2.61;93.84
44697;BME280;57264;47.480;19.354;2023-12-29T08:01:15;99382.44;;;2.82;93.53
44697;BME280;57264;47.480;19.354;2023-12-29T08:03:41;99389.25;;;2.92;93.56
44697;BME280;57264;47.480;19.354;2023-12-29T08:06:07;99385.84;;;3.00;93.63
44697;BME280;57264;47.480;19.354;2023-12-29T08:08:32;99380.69;;;3.04;93.53
44697;BME280;57264;47.480;19.354;2023-12-29T08:10:58;99385.00;;;3.07;93.44
44697;BME280;57264;47.480;19.354;2023-12-29T08:13:23;99391.84;;;3.06;93.31
44697;BME280;57264;47.480;19.354;2023-12-29T08:15:49;99391.00;;;2.98;93.45
44697;BME280;57264;47.480;19.354;2023-12-29T08:18:14;99390.13;;;3.02;93.25
44697;BME280;57264;47.480;19.354;2023-12-29T08:20:40;99387.56;;;3.07;93.53
44697;BME280;57264;47.480;19.354;2023-12-29T08:23:06;99394.41;;;3.11;93.12
44697;BME280;57264;47.480;19.354;2023-12-29T08:25:31;99390.13;;;3.02;93.00
44697;BME280;57264;47.480;19.354;2023-12-29T08:28:02;99396.09;;;3.09;92.87
44697;BME280;57264;47.480;19.354;2023-12-29T08:30:27;99397.84;;;3.05;92.96
44697;BME280;57264;47.480;19.354;2023-12-29T08:32:53;99403.78;;;3.09;92.64
44697;BME280;57264;47.480;19.354;2023-12-29T08:35:23;99392.69;;;3.17;92.70
44697;BME280;57264;47.480;19.354;2023-12-29T08:37:49;99393.53;;;3.16;92.45
44697;BME280;57264;47.480;19.354;2023-12-29T08:40:14;99398.66;;;3.19;92.83
44697;BME280;57264;47.480;19.354;2023-12-29T08:42:40;99406.34;;;3.39;92.84
44697;BME280;57264;47.480;19.354;2023-12-29T08:45:06;99408.06;;;3.54;92.50
44697;BME280;57264;47.480;19.354;2023-12-29T08:47:31;99400.31;;;3.63;92.04
44697;BME280;57264;47.480;19.354;2023-12-29T08:49:59;99413.16;;;3.63;92.18
44697;BME280;57264;47.480;19.354;2023-12-29T08:52:25;99415.72;;;3.71;91.70
44697;BME280;57264;47.480;19.354;2023-12-29T08:54:50;99412.28;;;3.70;91.34
44697;BME280;57264;47.480;19.354;2023-12-29T08:57:16;99424.25;;;3.79;91.20
44697;BME280;57264;47.480;19.354;2023-12-29T08:59:42;99424.25;;;3.85;90.64
44697;BME280;57264;47.480;19.354;2023-12-29T09:02:08;99421.66;;;3.91;90.96
44697;BME280;57264;47.480;19.354;2023-12-29T09:04:35;99420.78;;;4.00;90.75
44697;BME280;57264;47.480;19.354;2023-12-29T09:07:01;99416.47;;;4.05;91.18
44697;BME280;57264;47.480;19.354;2023-12-29T09:09:26;99419.03;;;4.13;90.18
44697;BME280;57264;47.480;19.354;2023-12-29T09:11:52;99420.69;;;4.28;90.55
44697;BME280;57264;47.480;19.354;2023-12-29T09:14:17;99417.22;;;4.32;90.59
44697;BME280;57264;47.480;19.354;2023-12-29T09:16:43;99410.31;;;4.38;90.92
44697;BME280;57264;47.480;19.354;2023-12-29T09:19:12;99411.22;;;4.33;89.87
44697;BME280;57264;47.480;19.354;2023-12-29T09:21:38;99404.22;;;4.55;90.19
44697;BME280;57264;47.480;19.354;2023-12-29T09:24:04;99415.38;;;4.54;89.06
44697;BME280;57264;47.480;19.354;2023-12-29T09:26:30;99405.94;;;4.57;88.93
44697;BME280;57264;47.480;19.354;2023-12-29T09:28:55;99402.47;;;4.63;88.70
44697;BME280;57264;47.480;19.354;2023-12-29T09:31:21;99395.56;;;4.73;88.96
44697;BME280;57264;47.480;19.354;2023-12-29T09:33:46;99392.06;;;4.78;88.46
44697;BME280;57264;47.480;19.354;2023-12-29T09:36:12;99379.16;;;4.83;88.00
44697;BME280;57264;47.480;19.354;2023-12-29T09:38:37;99371.38;;;4.93;88.12
44697;BME280;57264;47.480;19.354;2023-12-29T09:41:13;99378.25;;;4.91;86.76
44697;BME280;57264;47.480;19.354;2023-12-29T09:43:40;99387.66;;;4.96;86.90
44697;BME280;57264;47.480;19.354;2023-12-29T09:46:07;99388.47;;;5.04;86.68
44697;BME280;57264;47.480;19.354;2023-12-29T09:48:34;99387.53;;;5.09;86.55
44697;BME280;57264;47.480;19.354;2023-12-29T09:51:01;99391.72;;;5.21;87.12
44697;BME280;57264;47.480;19.354;2023-12-29T09:53:27;99390.06;;;5.14;85.75
44697;BME280;57264;47.480;19.354;2023-12-29T09:55:54;99388.25;;;5.25;86.16
44697;BME280;57264;47.480;19.354;2023-12-29T09:58:22;99383.06;;;5.30;85.64
44697;BME280;57264;47.480;19.354;2023-12-29T10:00:51;99389.84;;;5.43;84.92
44697;BME280;57264;47.480;19.354;2023-12-29T10:03:17;99388.00;;;5.53;84.81
44697;BME280;57264;47.480;19.354;2023-12-29T10:05:45;99393.25;;;5.43;84.06
44697;BME280;57264;47.480;19.354;2023-12-29T10:08:14;99381.88;;;5.64;84.96
44697;BME280;57264;47.480;19.354;2023-12-29T10:10:42;99383.78;;;5.46;83.46
44697;BME280;57264;47.480;19.354;2023-12-29T10:13:09;99376.81;;;5.55;83.45
44697;BME280;57264;47.480;19.354;2023-12-29T10:16:28;99379.50;;;5.45;82.88
44697;BME280;57264;47.480;19.354;2023-12-29T10:18:44;99373.19;;;5.70;83.25
44697;BME280;57264;47.480;19.354;2023-12-29T10:21:36;99364.53;;;5.79;82.60
44697;BME280;57264;47.480;19.354;2023-12-29T10:24:12;99362.69;;;5.90;82.44
44697;BME280;57264;47.480;19.354;2023-12-29T10:26:42;99361.88;;;5.85;82.30
44697;BME280;57264;47.480;19.354;2023-12-29T10:29:10;99356.66;;;5.94;82.85
44697;BME280;57264;47.480;19.354;2023-12-29T10:31:37;99353.09;;;6.03;83.23
44697;BME280;57264;47.480;19.354;2023-12-29T10:34:23;99360.75;;;6.09;83.23
44697;BME280;57264;47.480;19.354;2023-12-29T10:37:00;99363.34;;;6.09;83.29
44697;BME280;57264;47.480;19.354;2023-12-29T10:39:35;99360.75;;;6.10;82.31
44697;BME280;57264;47.480;19.354;2023-12-29T10:42:06;99355.59;;;6.10;81.94
44697;BME280;57264;47.480;19.354;2023-12-29T10:44:33;99350.34;;;6.16;81.77
44697;BME280;57264;47.480;19.354;2023-12-29T10:47:07;99351.16;;;6.20;82.30
44697;BME280;57264;47.480;19.354;2023-12-29T10:49:33;99352.88;;;6.20;82.13
44697;BME280;57264;47.480;19.354;2023-12-29T10:51:59;99346.75;;;6.30;82.44
44697;BME280;57264;47.480;19.354;2023-12-29T10:54:24;99341.50;;;6.33;82.14
44697;BME280;57264;47.480;19.354;2023-12-29T10:57:03;99326.84;;;6.36;81.22
44697;BME280;57264;47.480;19.354;2023-12-29T10:59:28;99330.34;;;6.34;81.30
44697;BME280;57264;47.480;19.354;2023-12-29T11:01:56;99330.31;;;6.35;81.43
44697;BME280;57264;47.480;19.354;2023-12-29T11:04:22;99326.03;;;6.34;80.70
44697;BME280;57264;47.480;19.354;2023-12-29T11:06:48;99332.78;;;6.43;81.08
44697;BME280;57264;47.480;19.354;2023-12-29T11:09:30;99325.00;;;6.45;80.64
44697;BME280;57264;47.480;19.354;2023-12-29T11:12:01;99316.34;;;6.49;80.63
44697;BME280;57264;47.480;19.354;2023-12-29T11:14:27;99319.75;;;6.49;80.16
44697;BME280;57264;47.480;19.354;2023-12-29T11:16:57;99319.75;;;6.49;79.97
44697;BME280;57264;47.480;19.354;2023-12-29T11:19:24;99313.78;;;6.47;80.20
44697;BME280;57264;47.480;19.354;2023-12-29T11:21:54;99313.75;;;6.50;80.71
44697;BME280;57264;47.480;19.354;2023-12-29T11:24:20;99317.03;;;6.60;80.82
44697;BME280;57264;47.480;19.354;2023-12-29T11:26:46;99321.31;;;6.62;79.74
44697;BME280;57264;47.480;19.354;2023-12-29T11:29:13;99312.63;;;6.67;80.46
44697;BME280;57264;47.480;19.354;2023-12-29T11:31:40;99306.59;;;6.68;79.66
44697;BME280;57264;47.480;19.354;2023-12-29T11:34:12;99306.59;;;6.68;79.26
44697;BME280;57264;47.480;19.354;2023-12-29T11:36:45;99302.22;;;6.71;79.25
44697;BME280;57264;47.480;19.354;2023-12-29T11:39:17;99303.19;;;6.65;79.01
44697;BME280;57264;47.480;19.354;2023-12-29T11:44:26;99289.38;;;6.68;79.03
44697;BME280;57264;47.480;19.354;2023-12-29T11:46:53;99289.41;;;6.67;78.72
44697;BME280;57264;47.480;19.354;2023-12-29T11:49:19;99291.13;;;6.66;79.21
44697;BME280;57264;47.480;19.354;2023-12-29T11:51:47;99290.22;;;6.70;78.76
44697;BME280;57264;47.480;19.354;2023-12-29T11:54:25;99291.03;;;6.72;78.89
44697;BME280;57264;47.480;19.354;2023-12-29T11:56:52;99290.22;;;6.70;79.50
44697;BME280;57264;47.480;19.354;2023-12-29T11:59:22;99285.72;;;6.81;79.12
44697;BME280;57264;47.480;19.354;2023-12-29T12:01:55;99282.16;;;6.87;78.63
44697;BME280;57264;47.480;19.354;2023-12-29T12:04:37;99279.50;;;6.92;78.54
44697;BME280;57264;47.480;19.354;2023-12-29T12:12:45;99278.50;;;7.00;77.69
44697;BME280;57264;47.480;19.354;2023-12-29T12:18:00;99264.53;;;7.10;77.41
44697;BME280;57264;47.480;19.354;2023-12-29T12:20:26;99259.38;;;7.10;76.91
44697;BME280;57264;47.480;19.354;2023-12-29T12:22:58;99251.81;;;7.01;77.61
44697;BME280;57264;47.480;19.354;2023-12-29T12:25:29;99250.03;;;7.03;78.04
44697;BME280;57264;47.480;19.354;2023-12-29T12:27:55;99244.81;;;7.06;77.24
44697;BME280;57264;47.480;19.354;2023-12-29T12:30:21;99243.97;;;7.06;77.29
44697;BME280;57264;47.480;19.354;2023-12-29T12:33:00;99242.19;;;7.09;77.16
44697;BME280;57264;47.480;19.354;2023-12-29T12:35:26;99243.91;;;7.07;77.18
44697;BME280;57264;47.480;19.354;2023-12-29T12:38:13;99246.22;;;7.23;77.48
44697;BME280;57264;47.480;19.354;2023-12-29T12:40:40;99252.13;;;7.29;76.33
44697;BME280;57264;47.480;19.354;2023-12-29T12:43:07;99246.97;;;7.28;75.64
44697;BME280;57264;47.480;19.354;2023-12-29T12:45:46;99245.16;;;7.33;76.41
44697;BME280;57264;47.480;19.354;2023-12-29T12:48:22;99252.03;;;7.34;75.81
44697;BME280;57264;47.480;19.354;2023-12-29T12:50:49;99245.94;;;7.38;75.64
44697;BME280;57264;47.480;19.354;2023-12-29T12:53:15;99250.41;;;7.30;75.94
44697;BME280;57264;47.480;19.354;2023-12-29T12:55:49;99240.06;;;7.28;76.34
44697;BME280;57264;47.480;19.354;2023-12-29T12:58:21;99234.06;;;7.28;75.68
44697;BME280;57264;47.480;19.354;2023-12-29T13:00:47;99246.13;;;7.29;75.77
44697;BME280;57264;47.480;19.354;2023-12-29T13:03:14;99234.91;;;7.28;76.47
44697;BME280;57264;47.480;19.354;2023-12-29T13:05:40;99238.03;;;7.44;76.02
44697;BME280;57264;47.480;19.354;2023-12-29T13:08:06;99233.06;;;7.35;76.34
44697;BME280;57264;47.480;19.354;2023-12-29T13:10:32;99233.81;;;7.40;76.36
44697;BME280;57264;47.480;19.354;2023-12-29T13:12:58;99240.66;;;7.43;75.41
44697;BME280;57264;47.480;19.354;2023-12-29T13:15:24;99239.66;;;7.48;75.22
44697;BME280;57264;47.480;19.354;2023-12-29T13:17:53;99244.97;;;7.42;75.48